Time;durP1;ratioP1;P1;durP2;ratioP2;P2;SDS_P1;SDS_P2;PMS_P1;PMS_P2;Temp;Humidity;BMP_temperature;BMP_pressure;BME280_temperature;BME280_humidity;BME280_pressure;Samples;Min_cycle;Max_cycle;Signal;HPM_P1;HPM_P2
2023/02/28 00:01:04;;;;;;;1.30;1.20;;;-2.20;94.70;;;;;;4989159;28;20211;-70
2023/02/28 00:03:34;;;;;;;4.60;2.13;;;-2.30;94.70;;;;;;4988853;28;20200;-70
2023/02/28 00:06:01;;;;;;;1.85;1.55;;;-2.30;94.90;;;;;;4989040;28;20214;-70
2023/02/28 00:08:28;;;;;;;1.60;1.50;;;-2.30;94.90;;;;;;4989157;28;20219;-70
2023/02/28 00:10:56;;;;;;;2.75;1.80;;;-2.40;94.90;;;;;;4987900;28;20207;-70
2023/02/28 00:13:23;;;;;;;2.08;1.60;;;-2.30;95.10;;;;;;4988390;28;20262;-70
2023/02/28 00:16:00;;;;;;;3.13;2.40;;;-2.30;95.10;;;;;;4988554;28;20901;-70
2023/02/28 00:18:26;;;;;;;6.20;1.73;;;-2.40;95.20;;;;;;4989390;28;20601;-70
2023/02/28 00:20:53;;;;;;;2.15;1.70;;;-2.40;95.30;;;;;;4988754;28;20217;-70
2023/02/28 00:23:20;;;;;;;2.22;2.03;;;-2.40;95.40;;;;;;4988307;28;20199;-70
2023/02/28 00:25:46;;;;;;;1.70;1.60;;;-2.50;95.50;;;;;;4988706;28;20694;-70
2023/02/28 00:28:15;;;;;;;2.78;2.00;;;-2.50;95.60;;;;;;4988633;28;20227;-71
2023/02/28 00:30:41;;;;;;;1.70;1.60;;;-2.50;95.60;;;;;;4988488;28;20203;-70
2023/02/28 00:33:08;;;;;;;3.88;2.05;;;-2.50;95.70;;;;;;4987849;28;20223;-70
2023/02/28 00:35:35;;;;;;;2.20;2.03;;;-2.50;95.70;;;;;;4988611;28;20203;-70
2023/02/28 00:38:02;;;;;;;2.40;1.65;;;-2.50;95.70;;;;;;4988042;28;20223;-70
2023/02/28 00:40:28;;;;;;;1.70;1.60;;;-2.50;95.70;;;;;;4988314;28;20223;-69
2023/02/28 00:42:55;;;;;;;1.70;1.60;;;-2.60;95.90;;;;;;4987521;28;20282;-70
2023/02/28 00:45:23;;;;;;;2.00;1.80;;;-2.60;95.90;;;;;;4988928;28;20210;-71
2023/02/28 00:47:50;;;;;;;2.22;1.98;;;-2.60;96.00;;;;;;4988115;28;20690;-69
2023/02/28 00:50:17;;;;;;;1.60;1.50;;;-2.60;96.10;;;;;;4980638;28;20688;-70
2023/02/28 00:52:44;;;;;;;3.42;1.90;;;-2.60;96.10;;;;;;4987699;28;20222;-68
2023/02/28 00:55:11;;;;;;;2.60;1.80;;;-2.60;96.20;;;;;;4987918;28;20210;-71
2023/02/28 00:57:37;;;;;;;4.43;1.80;;;-2.70;96.30;;;;;;4988109;28;20246;-70
2023/02/28 01:00:06;;;;;;;5.43;2.35;;;-2.70;96.40;;;;;;4988214;28;20200;-71
2023/02/28 01:02:34;;;;;;;1.70;1.60;;;-2.70;96.40;;;;;;4986997;28;20570;-70
2023/02/28 01:05:01;;;;;;;2.63;2.05;;;-2.70;96.50;;;;;;4987610;28;20689;-70
2023/02/28 01:07:27;;;;;;;3.88;2.10;;;-2.70;96.50;;;;;;4988021;28;20227;-70
2023/02/28 01:09:54;;;;;;;2.78;1.90;;;-2.70;96.50;;;;;;4987020;28;20206;-70
2023/02/28 01:12:21;;;;;;;1.92;1.40;;;-2.60;96.70;;;;;;4987832;28;20691;-71
2023/02/28 01:14:48;;;;;;;2.15;1.70;;;-2.60;96.70;;;;;;4987407;28;20199;-71
2023/02/28 01:17:14;;;;;;;1.63;1.52;;;-2.60;96.60;;;;;;4987956;28;20294;-70
2023/02/28 01:19:42;;;;;;;3.30;1.70;;;-2.70;96.80;;;;;;4987959;28;20207;-70
2023/02/28 01:22:09;;;;;;;5.32;2.42;;;-2.70;96.80;;;;;;4987979;28;20601;-70
2023/02/28 01:24:36;;;;;;;2.25;1.70;;;-2.70;96.90;;;;;;4987429;28;20206;-70
2023/02/28 01:27:03;;;;;;;2.10;1.45;;;-2.70;97.00;;;;;;4987825;28;20647;-70
2023/02/28 01:29:29;;;;;;;2.40;2.20;;;-2.70;97.10;;;;;;4988048;28;20199;-69
2023/02/28 01:31:56;;;;;;;3.03;2.05;;;-2.70;97.20;;;;;;4987485;28;20246;-70
2023/02/28 01:34:23;;;;;;;1.75;1.60;;;-2.70;97.30;;;;;;4987599;28;20608;-71
2023/02/28 01:36:51;;;;;;;2.55;1.90;;;-2.70;97.30;;;;;;4987548;28;20235;-70
2023/02/28 01:39:18;;;;;;;3.85;1.88;;;-2.80;97.40;;;;;;4987359;28;20208;-70
2023/02/28 01:41:44;;;;;;;1.73;1.63;;;-2.70;97.50;;;;;;4987635;28;20199;-70
2023/02/28 01:44:44;;;;;;;3.00;2.22;;;-2.80;97.60;;;;;;4987008;28;20689;-70
2023/02/28 01:47:11;;;;;;;1.90;1.58;;;-2.80;97.70;;;;;;4987512;28;20227;-71
2023/02/28 01:49:38;;;;;;;2.50;2.30;;;-2.90;97.80;;;;;;4987474;28;20199;-70
2023/02/28 01:52:07;;;;;;;2.40;2.17;;;-2.90;98.10;;;;;;4987497;28;20222;-70
2023/02/28 01:54:35;;;;;;;1.80;1.70;;;-2.90;98.40;;;;;;4987182;28;20670;-71
2023/02/28 01:57:06;;;;;;;1.67;1.40;;;-2.90;98.20;;;;;;4987332;28;20227;-71
2023/02/28 01:59:37;;;;;;;2.95;2.15;;;-2.80;98.40;;;;;;4987696;28;20203;-70
2023/02/28 02:02:04;;;;;;;2.65;1.83;;;-2.80;98.40;;;;;;4987488;28;20294;-72
2023/02/28 02:04:39;;;;;;;1.65;1.17;;;-2.80;98.40;;;;;;4987099;28;20547;-70
2023/02/28 02:07:07;;;;;;;1.88;1.60;;;-2.80;98.50;;;;;;4987390;28;20301;-70
2023/02/28 02:09:34;;;;;;;2.70;2.50;;;-2.70;98.70;;;;;;4986536;28;20208;-70
2023/02/28 02:12:06;;;;;;;3.03;2.15;;;-2.80;98.70;;;;;;4986776;28;20223;-70
2023/02/28 02:14:44;;;;;;;2.22;1.77;;;-2.80;98.90;;;;;;4989483;28;20211;-70
2023/02/28 02:17:20;;;;;;;2.20;1.92;;;-2.80;99.10;;;;;;4990259;28;20714;-70
2023/02/28 02:20:17;;;;;;;2.80;2.05;;;-2.80;99.20;;;;;;4990454;28;20256;-70
2023/02/28 02:23:17;;;;;;;3.17;1.90;;;-2.80;99.20;;;;;;4990160;28;20198;-70
2023/02/28 02:25:50;;;;;;;1.92;1.65;;;-2.80;99.20;;;;;;4990588;28;20208;-70
2023/02/28 02:28:40;;;;;;;4.05;2.38;;;-2.80;99.30;;;;;;4990541;28;20596;-70
2023/02/28 02:31:28;;;;;;;2.40;2.00;;;-2.80;99.40;;;;;;4990350;28;20206;-70
2023/02/28 02:34:28;;;;;;;4.00;2.67;;;-2.80;99.60;;;;;;4990020;28;20663;-70
2023/02/28 02:37:01;;;;;;;4.35;2.67;;;-2.80;99.70;;;;;;4990231;28;20224;-70
2023/02/28 02:39:37;;;;;;;1.98;1.52;;;-2.80;99.90;;;;;;4990144;28;20218;-70
2023/02/28 02:42:11;;;;;;;2.75;2.33;;;-2.70;99.90;;;;;;5024731;28;20210;-70
2023/02/28 02:44:45;;;;;;;2.88;2.13;;;-2.70;99.90;;;;;;4990204;28;20261;-70
2023/02/28 02:47:16;;;;;;;2.55;2.35;;;-2.70;99.90;;;;;;4990202;28;20375;-70
2023/02/28 02:49:49;;;;;;;2.40;2.20;;;-2.70;99.90;;;;;;4990102;28;20199;-70
2023/02/28 02:52:19;;;;;;;2.38;2.17;;;-2.60;99.90;;;;;;4990194;28;20227;-70
2023/02/28 02:54:48;;;;;;;3.15;2.30;;;-2.60;99.90;;;;;;4989641;28;20203;-69
2023/02/28 02:57:21;;;;;;;2.15;1.95;;;-2.60;99.90;;;;;;4990047;28;20219;-69
2023/02/28 02:59:51;;;;;;;3.00;2.38;;;-2.50;99.90;;;;;;4990085;28;20838;-70
2023/02/28 03:02:19;;;;;;;5.75;2.35;;;-2.50;99.90;;;;;;4989987;28;20196;-70
2023/02/28 03:04:53;;;;;;;2.28;2.08;;;-2.50;99.90;;;;;;4989377;28;20199;-70
2023/02/28 03:07:20;;;;;;;2.80;2.58;;;-2.50;99.90;;;;;;4989986;28;20222;-70
2023/02/28 03:09:52;;;;;;;2.72;2.40;;;-2.50;99.90;;;;;;4989861;28;20555;-70
2023/02/28 03:12:19;;;;;;;2.85;2.45;;;-2.40;99.90;;;;;;4990040;28;20758;-70
2023/02/28 03:14:56;;;;;;;4.07;2.22;;;-2.40;99.90;;;;;;4989449;28;20690;-70
2023/02/28 03:17:41;;;;;;;2.45;2.25;;;-2.50;99.90;;;;;;4989733;28;20296;-70
2023/02/28 03:20:17;;;;;;;2.50;2.30;;;-2.50;99.90;;;;;;4989844;28;20211;-70
2023/02/28 03:22:53;;;;;;;3.33;2.33;;;-2.50;99.90;;;;;;4989601;28;20196;-70
2023/02/28 03:25:27;;;;;;;3.00;2.70;;;-2.50;99.90;;;;;;4988172;28;20244;-70
2023/02/28 03:28:02;;;;;;;2.60;2.40;;;-2.50;99.90;;;;;;4989058;28;20227;-69
2023/02/28 03:30:34;;;;;;;2.53;2.30;;;-2.50;99.90;;;;;;4989635;28;20230;-70
2023/02/28 03:33:07;;;;;;;2.60;2.40;;;-2.50;99.90;;;;;;4988833;28;20219;-70
2023/02/28 03:35:38;;;;;;;2.88;2.00;;;-2.50;99.90;;;;;;4989560;28;20566;-71
2023/02/28 03:38:13;;;;;;;4.60;2.67;;;-2.50;99.90;;;;;;4989669;28;20709;-71
2023/02/28 03:40:46;;;;;;;2.65;2.30;;;-2.40;99.90;;;;;;4989441;28;20203;-71
2023/02/28 03:43:18;;;;;;;4.35;2.35;;;-2.40;99.90;;;;;;4988999;28;20203;-70
2023/02/28 03:45:48;;;;;;;3.08;2.33;;;-2.30;99.90;;;;;;4989455;28;20294;-69
2023/02/28 03:48:19;;;;;;;4.13;2.55;;;-2.30;99.90;;;;;;4989232;28;20223;-70
2023/02/28 03:50:52;;;;;;;3.88;2.58;;;-2.30;99.90;;;;;;4989268;28;20603;-70
2023/02/28 03:53:26;;;;;;;3.17;2.42;;;-2.30;99.90;;;;;;4988996;28;20602;-70
2023/02/28 03:55:57;;;;;;;2.70;2.50;;;-2.30;99.90;;;;;;4989578;28;20207;-71
2023/02/28 03:58:30;;;;;;;3.20;2.35;;;-2.20;99.90;;;;;;4989247;28;20714;-70
2023/02/28 04:01:07;;;;;;;3.00;2.50;;;-2.30;99.90;;;;;;4989331;28;20203;-70
2023/02/28 04:03:35;;;;;;;3.67;2.28;;;-2.20;99.90;;;;;;4988569;28;20230;-70
2023/02/28 04:06:03;;;;;;;3.50;2.42;;;-2.20;99.90;;;;;;4989222;28;20303;-70
2023/02/28 04:08:30;;;;;;;4.07;2.67;;;-2.20;99.90;;;;;;4981777;28;20220;-70
2023/02/28 04:11:02;;;;;;;2.58;2.33;;;-2.20;99.90;;;;;;4988595;28;20203;-69
2023/02/28 04:13:29;;;;;;;2.60;1.73;;;-2.20;99.90;;;;;;4988827;28;20212;-70
2023/02/28 04:15:55;;;;;;;4.40;2.83;;;-2.20;99.90;;;;;;4989449;28;20565;-70
2023/02/28 04:18:22;;;;;;;2.95;2.67;;;-2.10;99.90;;;;;;4991140;28;20227;-70
2023/02/28 04:20:49;;;;;;;2.83;2.63;;;-2.10;99.90;;;;;;4989533;28;20252;-70
2023/02/28 04:23:17;;;;;;;3.10;2.80;;;-2.10;99.90;;;;;;4988085;28;20203;-69
2023/02/28 04:25:43;;;;;;;3.30;2.70;;;-2.10;99.90;;;;;;4988924;28;20207;-70
2023/02/28 04:28:10;;;;;;;2.03;1.92;;;-2.10;99.90;;;;;;4988825;28;20219;-69
2023/02/28 04:30:39;;;;;;;2.70;2.22;;;-2.10;99.90;;;;;;4988724;28;20678;-70
2023/02/28 04:33:05;;;;;;;4.28;2.83;;;-1.90;99.90;;;;;;4988105;28;20702;-70
2023/02/28 04:35:32;;;;;;;2.25;2.00;;;-1.90;99.90;;;;;;4986455;28;20200;-70
2023/02/28 04:37:59;;;;;;;3.25;2.50;;;-1.80;99.90;;;;;;4986282;28;20227;-70
2023/02/28 04:40:27;;;;;;;4.95;2.42;;;-1.90;99.90;;;;;;4987099;28;20550;-71
2023/02/28 04:42:53;;;;;;;5.05;3.10;;;-1.90;99.90;;;;;;4987926;28;20210;-71
2023/02/28 04:45:20;;;;;;;4.18;3.60;;;-1.90;99.90;;;;;;4987701;28;20207;-70
2023/02/28 04:47:47;;;;;;;4.57;2.47;;;-1.90;99.90;;;;;;4988199;28;20594;-71
2023/02/28 04:50:13;;;;;;;3.42;2.83;;;-1.90;99.90;;;;;;4988302;28;20301;-71
2023/02/28 04:52:40;;;;;;;4.15;2.92;;;-1.90;99.90;;;;;;4988265;28;20207;-71
2023/02/28 04:55:08;;;;;;;4.20;2.80;;;-2.00;99.90;;;;;;4987496;28;20631;-71
2023/02/28 04:57:36;;;;;;;2.55;2.35;;;-2.00;99.90;;;;;;4982885;28;20246;-71
2023/02/28 05:00:06;;;;;;;5.63;2.80;;;-2.00;99.90;;;;;;4982248;28;20385;-71
2023/02/28 05:02:35;;;;;;;4.40;3.17;;;-1.90;99.90;;;;;;4975770;28;20229;-71
2023/02/28 05:05:02;;;;;;;2.33;2.13;;;-2.00;99.90;;;;;;4982436;28;20721;-71
2023/02/28 05:07:29;;;;;;;3.20;2.90;;;-2.00;99.90;;;;;;4986092;28;20215;-70
2023/02/28 05:09:55;;;;;;;4.35;2.90;;;-2.00;99.90;;;;;;4986119;28;20235;-71
2023/02/28 05:12:22;;;;;;;3.13;2.55;;;-2.00;99.90;;;;;;4986735;28;20214;-70
2023/02/28 05:14:50;;;;;;;3.85;2.75;;;-2.00;99.90;;;;;;4987482;28;20222;-70
2023/02/28 05:17:17;;;;;;;2.80;2.50;;;-2.00;99.90;;;;;;4988043;28;20227;-71
2023/02/28 05:19:43;;;;;;;2.70;2.45;;;-1.90;99.90;;;;;;4988190;28;20270;-71
2023/02/28 05:22:15;;;;;;;4.32;3.85;;;-2.00;99.90;;;;;;4986952;28;20464;-69
2023/02/28 05:24:42;;;;;;;5.70;4.18;;;-1.90;99.90;;;;;;4987861;28;20253;-69
2023/02/28 05:27:09;;;;;;;4.15;3.40;;;-1.90;99.90;;;;;;4988014;28;20262;-70
2023/02/28 05:29:41;;;;;;;6.38;3.63;;;-1.80;99.90;;;;;;4987892;28;20629;-77
2023/02/28 05:32:10;;;;;;;3.92;3.50;;;-1.80;99.90;;;;;;4988717;28;20628;-70
2023/02/28 05:34:37;;;;;;;4.25;3.17;;;-1.80;99.90;;;;;;4987553;28;20215;-71
2023/02/28 05:37:04;;;;;;;4.60;3.25;;;-1.80;99.90;;;;;;4988212;28;20227;-71
2023/02/28 05:39:31;;;;;;;3.78;3.03;;;-1.80;99.90;;;;;;4987720;28;20202;-71
2023/02/28 05:41:57;;;;;;;5.65;3.20;;;-1.80;99.90;;;;;;4988135;28;20210;-71
2023/02/28 05:44:24;;;;;;;4.40;3.20;;;-1.80;99.90;;;;;;4987825;28;20199;-71
2023/02/28 05:46:51;;;;;;;3.83;3.05;;;-1.80;99.90;;;;;;4988018;28;20230;-71
2023/02/28 05:49:19;;;;;;;4.00;2.80;;;-1.90;99.90;;;;;;4990618;28;20210;-71
2023/02/28 05:51:45;;;;;;;4.00;3.22;;;-1.90;99.90;;;;;;4991589;28;20210;-70
2023/02/28 05:54:12;;;;;;;6.70;2.83;;;-1.80;99.90;;;;;;4990946;28;20223;-71
2023/02/28 05:56:40;;;;;;;3.13;2.40;;;-1.80;99.90;;;;;;4991120;28;20601;-72
2023/02/28 05:59:07;;;;;;;13.80;3.75;;;-1.80;99.90;;;;;;4991596;28;20264;-71
2023/02/28 06:01:36;;;;;;;3.28;2.40;;;-1.80;99.90;;;;;;4983354;28;20212;-72
2023/02/28 06:04:04;;;;;;;3.92;2.75;;;-1.80;99.90;;;;;;4990324;28;20286;-72
2023/02/28 06:06:34;;;;;;;3.58;3.28;;;-1.80;99.90;;;;;;4990975;28;20226;-71
2023/02/28 06:09:01;;;;;;;4.75;3.25;;;-1.80;99.90;;;;;;4990802;28;20207;-71
2023/02/28 06:11:28;;;;;;;9.75;3.15;;;-1.80;99.90;;;;;;4990602;28;20223;-71
2023/02/28 06:13:56;;;;;;;4.50;3.38;;;-1.80;99.90;;;;;;4990140;28;20222;-71
2023/02/28 06:16:23;;;;;;;5.10;3.42;;;-1.80;99.90;;;;;;4986779;28;20705;-70
2023/02/28 06:18:49;;;;;;;4.60;3.60;;;-1.80;99.90;;;;;;4984238;28;20589;-71
2023/02/28 06:21:16;;;;;;;5.18;4.28;;;-1.80;99.90;;;;;;4990389;28;20583;-70
2023/02/28 06:23:44;;;;;;;5.30;3.33;;;-1.80;99.90;;;;;;4990108;28;20207;-71
2023/02/28 06:26:11;;;;;;;4.75;3.38;;;-1.80;99.90;;;;;;4990601;28;20260;-70
2023/02/28 06:28:38;;;;;;;3.95;3.05;;;-1.70;99.90;;;;;;4990418;28;20226;-70
2023/02/28 06:31:09;;;;;;;4.68;3.60;;;-1.70;99.90;;;;;;4990487;28;20203;-70
2023/02/28 06:33:36;;;;;;;4.00;3.20;;;-1.70;99.90;;;;;;4981444;28;20215;-70
2023/02/28 06:36:03;;;;;;;5.15;3.50;;;-1.80;99.90;;;;;;4990310;28;20222;-70
2023/02/28 06:38:29;;;;;;;3.38;3.08;;;-1.80;99.90;;;;;;4990094;28;20227;-69
2023/02/28 06:40:59;;;;;;;3.30;2.50;;;-1.70;99.90;;;;;;4990577;28;20610;-69
2023/02/28 06:43:28;;;;;;;5.07;3.30;;;-1.70;99.90;;;;;;4990223;28;20223;-73
2023/02/28 06:45:56;;;;;;;5.50;4.13;;;-1.70;99.90;;;;;;4989868;28;20218;-70
2023/02/28 06:48:24;;;;;;;3.45;3.10;;;-1.70;99.90;;;;;;4990543;28;20235;-69
2023/02/28 06:50:51;;;;;;;7.25;3.50;;;-1.70;99.90;;;;;;4990218;28;20269;-69
2023/02/28 06:53:18;;;;;;;6.07;3.67;;;-1.70;99.90;;;;;;4989630;28;20668;-70
2023/02/28 06:55:46;;;;;;;3.15;2.70;;;-1.70;99.90;;;;;;4990107;28;20290;-70
2023/02/28 06:58:17;;;;;;;4.35;3.90;;;-1.70;99.90;;;;;;4989825;28;20322;-70
2023/02/28 07:00:46;;;;;;;3.90;3.53;;;-1.70;99.90;;;;;;4988591;28;20203;-70
2023/02/28 07:03:15;;;;;;;4.65;3.28;;;-1.60;99.90;;;;;;4989754;28;20214;-70
2023/02/28 07:05:43;;;;;;;2.90;2.35;;;-1.60;99.90;;;;;;4990154;28;20206;-70
2023/02/28 07:08:10;;;;;;;6.32;4.10;;;-1.60;99.90;;;;;;4990070;28;20223;-70
2023/02/28 07:10:39;;;;;;;5.22;3.33;;;-1.70;99.90;;;;;;4989587;28;20207;-71
2023/02/28 07:13:08;;;;;;;4.40;3.67;;;-1.60;99.90;;;;;;4989857;28;20207;-69
2023/02/28 07:15:37;;;;;;;7.82;3.45;;;-1.60;99.90;;;;;;4989658;28;20224;-71
2023/02/28 07:18:05;;;;;;;5.32;3.03;;;-1.60;99.90;;;;;;4990634;28;20304;-72
2023/02/28 07:20:32;;;;;;;3.60;3.30;;;-1.50;99.90;;;;;;4990126;28;20211;-71
2023/02/28 07:23:00;;;;;;;5.32;3.85;;;-1.50;99.90;;;;;;4989091;28;20696;-71
2023/02/28 07:25:28;;;;;;;5.65;4.45;;;-1.50;99.90;;;;;;4989850;28;20211;-71
2023/02/28 07:27:58;;;;;;;7.70;4.05;;;-1.50;99.90;;;;;;4989495;28;20280;-71
2023/02/28 07:30:26;;;;;;;3.88;3.47;;;-1.40;99.90;;;;;;4989508;28;20203;-70
2023/02/28 07:32:55;;;;;;;4.20;3.80;;;-1.40;99.90;;;;;;4989387;28;20207;-72
2023/02/28 07:35:23;;;;;;;5.78;4.40;;;-1.40;99.90;;;;;;4989210;28;20264;-71
2023/02/28 07:37:51;;;;;;;4.90;3.72;;;-1.40;99.90;;;;;;4989407;28;20228;-71
2023/02/28 07:40:19;;;;;;;5.85;4.13;;;-1.40;99.90;;;;;;4989391;28;20249;-72
2023/02/28 07:42:46;;;;;;;5.25;4.05;;;-1.40;99.90;;;;;;4989425;28;20195;-72
2023/02/28 07:45:14;;;;;;;4.15;3.50;;;-1.30;99.90;;;;;;4989274;28;20211;-71
2023/02/28 07:47:42;;;;;;;4.68;4.22;;;-1.30;99.90;;;;;;4989156;28;20223;-72
2023/02/28 07:50:13;;;;;;;5.03;3.38;;;-1.20;99.90;;;;;;4989554;28;20729;-72
2023/02/28 07:52:42;;;;;;;9.48;4.45;;;-1.20;99.90;;;;;;4980991;28;20236;-71
2023/02/28 07:55:10;;;;;;;6.95;4.13;;;-1.20;99.90;;;;;;4989209;28;20486;-71
2023/02/28 07:57:37;;;;;;;5.07;3.92;;;-1.20;99.90;;;;;;4989073;28;20215;-71
2023/02/28 08:00:07;;;;;;;3.88;3.50;;;-1.20;99.90;;;;;;4988890;28;20207;-70
2023/02/28 08:02:34;;;;;;;5.82;4.50;;;-1.20;99.90;;;;;;4990358;28;20623;-71
2023/02/28 08:05:02;;;;;;;5.28;3.35;;;-1.10;99.90;;;;;;4993611;28;20213;-71
2023/02/28 08:07:32;;;;;;;6.95;4.47;;;-1.10;99.90;;;;;;4993852;28;20273;-71
2023/02/28 08:10:00;;;;;;;5.55;4.20;;;-1.00;99.90;;;;;;4993561;28;20280;-70
2023/02/28 08:12:27;;;;;;;4.53;3.92;;;-1.00;99.90;;;;;;4993627;28;20207;-70
2023/02/28 08:14:55;;;;;;;5.47;4.28;;;-1.00;99.90;;;;;;4989616;28;20219;-74
2023/02/28 08:17:22;;;;;;;4.03;3.60;;;-1.00;99.90;;;;;;4989227;28;20284;-70
2023/02/28 08:19:50;;;;;;;5.45;4.40;;;-1.00;99.90;;;;;;4989327;28;20239;-70
2023/02/28 08:22:17;;;;;;;6.30;4.40;;;-1.00;99.90;;;;;;4989151;28;20257;-71
2023/02/28 08:24:46;;;;;;;5.68;4.80;;;-0.90;99.90;;;;;;4980557;28;20642;-71
2023/02/28 08:27:14;;;;;;;4.10;3.70;;;-0.90;99.90;;;;;;4988556;28;20225;-70
2023/02/28 08:29:41;;;;;;;5.10;4.10;;;-0.90;99.90;;;;;;4987834;28;20206;-70
2023/02/28 08:32:09;;;;;;;6.22;4.18;;;-0.80;99.90;;;;;;4987536;28;20720;-71
2023/02/28 08:34:37;;;;;;;4.78;4.22;;;-0.80;99.90;;;;;;4986994;28;20241;-70
2023/02/28 08:37:05;;;;;;;6.25;5.25;;;-0.80;99.90;;;;;;4987192;28;20400;-72
2023/02/28 08:39:34;;;;;;;4.00;3.53;;;-0.80;99.90;;;;;;4986896;28;20580;-71
2023/02/28 08:42:03;;;;;;;7.72;4.50;;;-0.70;99.90;;;;;;4987046;28;20203;-71
2023/02/28 08:44:31;;;;;;;4.80;4.32;;;-0.70;99.90;;;;;;4986981;28;20260;-71
2023/02/28 08:46:59;;;;;;;6.00;3.85;;;-0.70;99.90;;;;;;4987119;28;20234;-70
2023/02/28 08:49:28;;;;;;;5.15;3.92;;;-0.70;99.90;;;;;;5021163;28;20223;-71
2023/02/28 08:51:57;;;;;;;5.68;3.80;;;-0.70;99.90;;;;;;4987254;28;20199;-71
2023/02/28 08:54:25;;;;;;;5.20;4.40;;;-0.70;99.90;;;;;;4986937;28;20672;-69
2023/02/28 08:56:52;;;;;;;6.32;5.05;;;-0.60;99.90;;;;;;4986766;28;20226;-69
2023/02/28 08:59:21;;;;;;;5.10;4.70;;;-0.70;99.90;;;;;;4987100;28;20203;-70
2023/02/28 09:01:48;;;;;;;6.20;4.55;;;-0.60;99.90;;;;;;4986655;28;20203;-70
2023/02/28 09:04:15;;;;;;;4.40;3.55;;;-0.60;99.90;;;;;;4986974;28;20211;-71
2023/02/28 09:06:44;;;;;;;5.63;4.60;;;-0.50;99.90;;;;;;4986903;28;20205;-71
2023/02/28 09:09:11;;;;;;;4.68;4.15;;;-0.50;99.90;;;;;;4984041;28;20207;-72
2023/02/28 09:11:38;;;;;;;4.80;4.20;;;-0.40;99.90;;;;;;4986623;28;20249;-72
2023/02/28 09:14:05;;;;;;;4.43;3.95;;;-0.40;99.90;;;;;;4986980;28;20207;-72
2023/02/28 09:16:35;;;;;;;6.25;4.28;;;-0.40;99.90;;;;;;4986616;28;20215;-73
2023/02/28 09:19:02;;;;;;;6.35;3.90;;;-0.40;99.90;;;;;;4987362;28;20207;-72
2023/02/28 09:21:29;;;;;;;6.13;4.65;;;-0.50;99.90;;;;;;4987260;28;20654;-75
2023/02/28 09:23:56;;;;;;;7.47;4.88;;;-0.40;99.90;;;;;;4985803;28;20284;-75
2023/02/28 09:26:25;;;;;;;6.03;4.65;;;-0.30;99.90;;;;;;5021116;28;20208;-74
2023/02/28 09:28:52;;;;;;;5.38;3.47;;;-0.30;99.90;;;;;;4987215;28;20230;-70
2023/02/28 09:31:21;;;;;;;6.40;5.80;;;-0.30;99.90;;;;;;4987516;28;20214;-70
2023/02/28 09:33:50;;;;;;;5.65;4.40;;;-0.30;99.90;;;;;;4978973;28;20211;-72
2023/02/28 09:36:17;;;;;;;7.03;4.28;;;-0.20;99.90;;;;;;4987235;28;20222;-70
2023/02/28 09:38:45;;;;;;;5.22;4.65;;;-0.10;99.90;;;;;;4986701;28;20229;-70
2023/02/28 09:41:14;;;;;;;5.03;4.10;;;0.00;99.90;;;;;;4987009;28;20208;-69
2023/02/28 09:43:46;;;;;;;5.68;3.55;;;-0.10;99.90;;;;;;4985857;28;20366;-71
2023/02/28 09:46:27;;;;;;;10.20;5.03;;;-0.10;99.90;;;;;;4986731;28;20207;-71
2023/02/28 09:48:56;;;;;;;5.32;4.22;;;-0.20;99.90;;;;;;4986611;28;20219;-71
2023/02/28 09:51:40;;;;;;;6.55;4.57;;;-0.20;99.90;;;;;;4986683;28;20222;-71
2023/02/28 09:54:10;;;;;;;7.97;4.30;;;-0.10;99.90;;;;;;4986116;28;20203;-71
2023/02/28 09:56:39;;;;;;;8.05;4.60;;;-0.10;99.90;;;;;;4986666;28;20214;-71
2023/02/28 09:59:15;;;;;;;6.95;4.65;;;-0.10;99.90;;;;;;4986280;28;20650;-71
2023/02/28 10:01:51;;;;;;;5.93;4.50;;;0.00;99.90;;;;;;4986334;28;20210;-71
2023/02/28 10:04:37;;;;;;;5.45;4.95;;;0.00;99.90;;;;;;4986268;28;20203;-71
2023/02/28 10:07:17;;;;;;;7.13;4.60;;;0.20;99.90;;;;;;4986464;28;20223;-71
2023/02/28 10:09:45;;;;;;;6.10;4.15;;;0.30;99.90;;;;;;4985982;28;20311;-71
2023/02/28 10:12:14;;;;;;;6.30;4.90;;;0.50;99.90;;;;;;4985430;28;20710;-71
2023/02/28 10:14:46;;;;;;;6.38;4.30;;;0.60;99.90;;;;;;4985334;28;20231;-71
2023/02/28 10:17:19;;;;;;;8.73;4.85;;;0.60;99.90;;;;;;4984570;28;20235;-71
2023/02/28 10:19:56;;;;;;;6.93;4.50;;;0.50;99.90;;;;;;5019280;28;20306;-72
2023/02/28 10:22:28;;;;;;;6.15;4.50;;;0.70;99.90;;;;;;4986491;28;20608;-72
2023/02/28 10:25:02;;;;;;;7.20;4.88;;;0.80;99.90;;;;;;4985836;28;20210;-73
2023/02/28 10:27:32;;;;;;;4.40;4.00;;;0.80;99.90;;;;;;4985678;28;20725;-69
2023/02/28 10:30:02;;;;;;;6.47;4.85;;;1.00;99.90;;;;;;4986387;28;20207;-71
2023/02/28 10:32:33;;;;;;;7.13;4.72;;;1.20;99.90;;;;;;4986025;28;20211;-72
2023/02/28 10:35:15;;;;;;;7.00;5.07;;;1.30;99.80;;;;;;4987022;28;20310;-71
2023/02/28 10:37:44;;;;;;;7.65;5.03;;;1.30;99.70;;;;;;4988068;28;20280;-71
2023/02/28 10:40:29;;;;;;;6.50;4.95;;;1.30;99.30;;;;;;4980629;28;20293;-70
2023/02/28 10:42:58;;;;;;;6.80;4.30;;;1.30;98.90;;;;;;4982222;28;20235;-71
2023/02/28 10:45:27;;;;;;;6.00;5.10;;;1.50;98.70;;;;;;4990564;28;20207;-68
2023/02/28 10:47:56;;;;;;;6.00;5.30;;;2.00;99.00;;;;;;4981605;28;20227;-71
2023/02/28 10:50:40;;;;;;;6.35;5.72;;;3.20;98.00;;;;;;4989226;28;20235;-71
2023/02/28 10:53:16;;;;;;;5.25;4.75;;;4.70;97.40;;;;;;4985090;28;20300;-69
2023/02/28 10:56:00;;;;;;;7.70;4.97;;;6.50;94.40;;;;;;4991168;28;20242;-71
2023/02/28 10:58:29;;;;;;;6.55;4.88;;;7.40;92.10;;;;;;4991405;28;20593;-72
2023/02/28 11:01:05;;;;;;;7.35;5.43;;;7.50;91.00;;;;;;4990812;28;20867;-69
2023/02/28 11:03:36;;;;;;;6.60;4.78;;;8.40;91.00;;;;;;4991024;28;20597;-70
2023/02/28 11:06:16;;;;;;;6.15;4.80;;;9.90;87.00;;;;;;4991089;28;20207;-69
2023/02/28 11:08:57;;;;;;;6.20;4.20;;;11.00;82.60;;;;;;4992034;28;20223;-70
2023/02/28 11:11:26;;;;;;;5.25;4.75;;;11.20;80.70;;;;;;4991058;28;20199;-70
2023/02/28 11:13:55;;;;;;;6.45;4.60;;;11.00;79.80;;;;;;4991222;28;20207;-70
2023/02/28 11:16:23;;;;;;;6.05;5.03;;;10.50;81.30;;;;;;4992045;28;20722;-69
2023/02/28 11:18:52;;;;;;;6.85;4.78;;;10.80;81.50;;;;;;4990190;28;20251;-69
2023/02/28 11:21:25;;;;;;;6.80;5.05;;;11.50;78.30;;;;;;4991238;28;20256;-69
2023/02/28 11:23:56;;;;;;;7.43;5.28;;;11.70;78.30;;;;;;4982148;28;20243;-70
2023/02/28 11:26:44;;;;;;;5.95;5.07;;;12.10;78.90;;;;;;4989376;28;20227;-69
2023/02/28 11:29:18;;;;;;;5.90;5.32;;;12.40;78.70;;;;;;4989969;28;20203;-68
2023/02/28 11:32:08;;;;;;;6.28;5.00;;;12.00;77.80;;;;;;4988835;28;20268;-67
2023/02/28 11:34:37;;;;;;;7.25;5.45;;;12.30;79.00;;;;;;4990311;28;20294;-70
2023/02/28 11:37:11;;;;;;;5.70;5.20;;;12.70;76.80;;;;;;4989214;28;20265;-70
2023/02/28 11:39:38;;;;;;;6.40;5.80;;;12.40;76.40;;;;;;4988374;28;20234;-70
2023/02/28 11:42:26;;;;;;;6.10;5.50;;;12.00;75.90;;;;;;4990392;28;20207;-70
2023/02/28 11:45:15;;;;;;;6.72;5.07;;;10.80;77.50;;;;;;4987939;28;20210;-69
2023/02/28 11:47:49;;;;;;;5.80;5.20;;;10.00;79.20;;;;;;4987686;28;20258;-69
2023/02/28 11:50:27;;;;;;;6.10;5.50;;;9.10;80.60;;;;;;4988123;28;20203;-69
2023/02/28 11:52:57;;;;;;;7.15;5.10;;;8.40;82.90;;;;;;4979935;28;20215;-69
2023/02/28 11:55:28;;;;;;;7.03;5.47;;;8.00;83.70;;;;;;4988477;28;20519;-69
2023/02/28 11:58:09;;;;;;;7.50;5.25;;;7.60;84.80;;;;;;4980052;28;20601;-69
2023/02/28 12:00:49;;;;;;;6.20;5.22;;;7.50;84.90;;;;;;4988074;28;20226;-70
2023/02/28 12:03:27;;;;;;;8.18;6.13;;;7.60;85.30;;;;;;4987343;28;20199;-69
2023/02/28 12:06:06;;;;;;;6.32;5.40;;;8.10;83.20;;;;;;4988203;28;20199;-69
2023/02/28 12:08:47;;;;;;;5.90;4.60;;;8.40;84.60;;;;;;4988139;28;20256;-69
2023/02/28 12:11:24;;;;;;;5.20;4.70;;;9.40;82.80;;;;;;4988589;28;20203;-68
2023/02/28 12:14:04;;;;;;;6.47;5.63;;;10.60;79.00;;;;;;4987781;28;20203;-70
2023/02/28 12:16:47;;;;;;;7.28;5.35;;;11.50;78.20;;;;;;4987363;28;20261;-69
2023/02/28 12:19:21;;;;;;;6.30;5.50;;;11.60;75.50;;;;;;4988288;28;20206;-69
2023/02/28 12:22:23;;;;;;;6.60;5.93;;;11.50;77.40;;;;;;4986328;28;20231;-69
2023/02/28 12:25:03;;;;;;;7.22;5.25;;;12.30;76.40;;;;;;4987853;28;20210;-70
2023/02/28 12:27:33;;;;;;;5.75;4.63;;;13.20;74.40;;;;;;4987723;28;20250;-70
2023/02/28 12:30:06;;;;;;;6.70;5.43;;;14.20;73.50;;;;;;4988198;28;20195;-69
2023/02/28 12:32:38;;;;;;;6.53;5.47;;;15.00;72.10;;;;;;4985532;28;20245;-71
2023/02/28 12:35:13;;;;;;;8.68;6.22;;;15.10;70.10;;;;;;4987301;28;20662;-71
2023/02/28 12:37:45;;;;;;;6.95;5.78;;;13.50;70.30;;;;;;4987501;28;20694;-71
2023/02/28 12:40:18;;;;;;;6.50;5.55;;;12.50;72.70;;;;;;4987511;28;20207;-71
2023/02/28 12:42:49;;;;;;;5.47;4.72;;;11.70;74.00;;;;;;4987103;28;20231;-70
2023/02/28 12:45:20;;;;;;;6.40;5.80;;;11.40;74.30;;;;;;4987921;28;20203;-72
2023/02/28 12:47:51;;;;;;;5.60;5.00;;;11.80;75.10;;;;;;4986917;28;20223;-72
2023/02/28 12:50:20;;;;;;;5.57;5.03;;;12.50;72.80;;;;;;4987493;28;20199;-70
2023/02/28 12:52:57;;;;;;;5.65;5.05;;;13.20;71.80;;;;;;4986603;28;20206;-71
2023/02/28 12:55:32;;;;;;;5.47;4.95;;;14.10;70.30;;;;;;4987881;28;20623;-72
2023/02/28 12:58:09;;;;;;;5.85;4.85;;;14.60;67.70;;;;;;4987239;28;20222;-72
2023/02/28 13:00:39;;;;;;;5.47;4.97;;;15.00;69.30;;;;;;4987404;28;20209;-71
2023/02/28 13:03:36;;;;;;;6.00;5.50;;;14.20;69.70;;;;;;4987257;28;20204;-73
2023/02/28 13:06:38;;;;;;;6.55;5.70;;;13.40;69.90;;;;;;4987832;28;20229;-72